createdAt,value
2022-08-20T00:02:15.360Z,100073.13
2022-08-20T00:04:44.082Z,100081.47
2022-08-20T00:07:15.163Z,100081.41
2022-08-20T00:09:44.022Z,100084.97
2022-08-20T00:12:16.277Z,100090.91
2022-08-20T00:14:44.525Z,100095.75
2022-08-20T00:17:12.324Z,100099.19
2022-08-20T00:19:40.171Z,100114.53
2022-08-20T00:22:08.436Z,100113.03
2022-08-20T00:24:36.271Z,100123.13
2022-08-20T00:27:04.541Z,100119.44
2022-08-20T00:29:32.362Z,100130.59
2022-08-20T00:32:00.996Z,100130.59
2022-08-20T00:34:29.261Z,100132.91
2022-08-20T00:36:57.438Z,100140.22
2022-08-20T00:39:25.626Z,100146.66
2022-08-20T00:41:53.782Z,100155.38
2022-08-20T00:44:23.199Z,100147.41
2022-08-20T00:46:53.710Z,100162.69
2022-08-20T00:49:29.300Z,100170.50
2022-08-20T00:52:13.209Z,100166.47
2022-08-20T00:54:58.870Z,100179.94
2022-08-20T00:57:46.103Z,100187.44
2022-08-20T01:00:31.910Z,100178.06
2022-08-20T01:03:01.352Z,100178.91
2022-08-20T01:05:30.188Z,100184.97
2022-08-20T01:07:59.718Z,100197.41
2022-08-20T01:10:34.981Z,100207.38
2022-08-20T01:13:11.315Z,100216.38
2022-08-20T01:15:45.964Z,100219.88
2022-08-20T01:18:19.891Z,100223.56
2022-08-20T01:21:04.191Z,100213.56
2022-08-20T01:23:32.487Z,100219.59
2022-08-20T01:26:26.061Z,100237.84
2022-08-20T01:29:03.509Z,100248.63
2022-08-20T01:31:35.509Z,100258.97
2022-08-20T01:34:06.601Z,100246.66
2022-08-20T01:36:51.457Z,100269.34
2022-08-20T01:39:34.043Z,100274.72
2022-08-20T01:42:36.458Z,100261.66
2022-08-20T01:45:07.240Z,100275.31
2022-08-20T01:47:38.466Z,100281.50
2022-08-20T01:50:19.554Z,100302.66
2022-08-20T01:53:04.374Z,100318.78
2022-08-20T01:55:32.899Z,100315.75
2022-08-20T01:58:01.625Z,100324.66
2022-08-20T02:00:29.911Z,100318.50
2022-08-20T02:02:58.097Z,100308.75
2022-08-20T02:05:30.586Z,100314.59
2022-08-20T02:07:59.007Z,100327.72
2022-08-20T02:10:31.765Z,100329.34
2022-08-20T02:13:02.039Z,100328.28
2022-08-20T02:15:34.918Z,100331.88
2022-08-20T02:18:10.472Z,100333.50
2022-08-20T02:20:40.014Z,100322.97
2022-08-20T02:23:09.361Z,100335.38
2022-08-20T02:25:40.303Z,100336.25
2022-08-20T02:28:12.688Z,100351.16
2022-08-20T02:30:47.048Z,100353.56
2022-08-20T02:33:18.463Z,100351.94
2022-08-20T02:35:49.886Z,100352.56
2022-08-20T02:38:18.544Z,100351.00
2022-08-20T02:40:49.130Z,100344.72
2022-08-20T02:43:18.921Z,100339.47
2022-08-20T02:45:47.378Z,100346.91
2022-08-20T02:48:21.026Z,100355.19
2022-08-20T02:51:03.955Z,100344.38
2022-08-20T02:53:38.276Z,100367.97
2022-08-20T02:56:08.111Z,100381.59
2022-08-20T02:58:36.698Z,100365.84
2022-08-20T03:01:08.413Z,100368.88
2022-08-20T03:03:36.788Z,100370.94
2022-08-20T03:06:05.214Z,100366.47
2022-08-20T03:08:33.833Z,100368.13
2022-08-20T03:11:02.069Z,100384.56
2022-08-20T03:13:30.286Z,100386.13
2022-08-20T03:16:01.251Z,100388.06
2022-08-20T03:18:40.861Z,100380.94
2022-08-20T03:21:10.108Z,100371.88
2022-08-20T03:23:40.385Z,100387.25
2022-08-20T03:26:12.932Z,100410.75
2022-08-20T03:28:42.122Z,100431.66
2022-08-20T03:31:10.998Z,100432.03
2022-08-20T03:33:52.817Z,100429.84
2022-08-20T03:36:28.442Z,100440.66
2022-08-20T03:39:00.760Z,100427.97
2022-08-20T03:41:29.511Z,100427.00
2022-08-20T03:43:58.017Z,100420.75
2022-08-20T03:46:26.396Z,100431.03
2022-08-20T03:49:00.284Z,100435.59
2022-08-20T03:51:30.813Z,100458.44
2022-08-20T03:53:59.346Z,100468.09
2022-08-20T03:56:28.238Z,100476.28
2022-08-20T03:58:56.750Z,100492.50
2022-08-20T04:01:45.140Z,100516.69
2022-08-20T04:04:12.942Z,100494.50
2022-08-20T04:06:42.656Z,100500.66
2022-08-20T04:09:12.153Z,100507.94
2022-08-20T04:11:42.074Z,100512.31
2022-08-20T04:14:11.367Z,100504.38
2022-08-20T04:16:41.381Z,100515.19
2022-08-20T04:19:09.626Z,100511.63
2022-08-20T04:21:37.819Z,100509.91
2022-08-20T04:24:06.527Z,100498.41
2022-08-20T04:26:36.452Z,100517.91
2022-08-20T04:29:05.109Z,100506.16
2022-08-20T04:31:34.056Z,100500.88
2022-08-20T04:34:04.677Z,100500.81
2022-08-20T04:36:33.137Z,100495.44
2022-08-20T04:39:01.386Z,100496.47
2022-08-20T04:41:29.505Z,100483.03
2022-08-20T04:43:58.325Z,100501.69
2022-08-20T04:46:28.794Z,100498.91
2022-08-20T04:48:57.701Z,100505.13
2022-08-20T04:51:27.033Z,100494.34
2022-08-20T04:53:56.574Z,100484.53
2022-08-20T04:56:29.104Z,100495.22
2022-08-20T04:59:00.162Z,100491.81
2022-08-20T05:01:29.225Z,100497.31
2022-08-20T05:03:58.140Z,100505.41
2022-08-20T05:06:31.473Z,100507.31
2022-08-20T05:09:01.060Z,100515.28
2022-08-20T05:11:36.156Z,100533.25
2022-08-20T05:14:09.916Z,100540.25
2022-08-20T05:16:40.665Z,100540.19
2022-08-20T05:19:12.435Z,100537.41
2022-08-20T05:21:41.163Z,100538.19
2022-08-20T05:24:10.505Z,100543.47
2022-08-20T05:26:38.904Z,100559.91
2022-08-20T05:29:07.635Z,100576.13
2022-08-20T05:31:36.092Z,100595.13
2022-08-20T05:34:11.868Z,100602.28
2022-08-20T05:36:49.186Z,100625.38
2022-08-20T05:39:22.435Z,100598.59
2022-08-20T05:41:51.233Z,100626.44
2022-08-20T05:44:20.013Z,100646.34
2022-08-20T05:46:48.724Z,100656.91
2022-08-20T05:49:21.057Z,100667.44
2022-08-20T05:51:51.366Z,100660.22
2022-08-20T05:54:20.135Z,100652.00
2022-08-20T05:56:48.429Z,100662.81
2022-08-20T05:59:19.922Z,100661.47
2022-08-20T06:01:50.953Z,100670.09
2022-08-20T06:04:25.225Z,100665.56
2022-08-20T06:07:12.373Z,100630.53
2022-08-20T06:09:44.250Z,100630.31
2022-08-20T06:12:12.598Z,100630.22
2022-08-20T06:14:40.702Z,100641.69
2022-08-20T06:17:18.946Z,100648.78
2022-08-20T06:19:50.268Z,100640.72
2022-08-20T06:22:23.508Z,100633.31
2022-08-20T06:24:55.085Z,100650.00
2022-08-20T06:27:23.568Z,100648.28
2022-08-20T06:29:52.202Z,100644.63
2022-08-20T06:32:32.137Z,100652.66
2022-08-20T06:35:04.029Z,100657.81
2022-08-20T06:37:33.726Z,100648.81
2022-08-20T06:40:07.060Z,100653.16
2022-08-20T06:42:35.604Z,100661.88
2022-08-20T06:45:05.768Z,100683.41
2022-08-20T06:47:34.448Z,100685.91
2022-08-20T06:50:02.634Z,100694.84
2022-08-20T06:52:52.236Z,100684.09
2022-08-20T06:55:18.908Z,100695.59
2022-08-20T06:57:48.366Z,100671.44
2022-08-20T07:00:20.056Z,100674.56
2022-08-20T07:02:48.272Z,100679.75
2022-08-20T07:05:16.876Z,100682.69
2022-08-20T07:07:47.625Z,100674.34
2022-08-20T07:10:17.387Z,100693.84
2022-08-20T07:12:46.869Z,100691.22
2022-08-20T07:15:15.324Z,100699.41
2022-08-20T07:17:48.226Z,100681.22
2022-08-20T07:20:16.721Z,100680.00
2022-08-20T07:22:45.095Z,100671.25
2022-08-20T07:25:16.605Z,100679.34
2022-08-20T07:27:45.413Z,100687.16
2022-08-20T07:30:55.843Z,100674.81
2022-08-20T07:33:28.157Z,100710.44
2022-08-20T07:36:04.305Z,100696.50
2022-08-20T07:38:33.863Z,100684.31
2022-08-20T07:41:09.929Z,100710.69
2022-08-20T07:43:39.554Z,100705.78
2022-08-20T07:46:09.093Z,100691.50
2022-08-20T07:48:40.189Z,100673.63
2022-08-20T07:51:11.025Z,100676.97
2022-08-20T07:53:40.706Z,100679.28
2022-08-20T07:56:13.313Z,100682.28
2022-08-20T07:58:50.482Z,100663.56
2022-08-20T08:01:29.080Z,100659.88
2022-08-20T08:03:59.032Z,100666.78
2022-08-20T08:06:31.150Z,100661.69
2022-08-20T08:09:10.355Z,100669.66
2022-08-20T08:11:46.971Z,100667.38
2022-08-20T08:14:21.380Z,100644.34
2022-08-20T08:16:50.040Z,100676.03
2022-08-20T08:19:19.032Z,100652.16
2022-08-20T08:21:47.493Z,100615.31
2022-08-20T08:24:21.672Z,100623.94
2022-08-20T08:26:52.526Z,100619.00
2022-08-20T08:29:20.653Z,100622.44
2022-08-20T08:31:48.985Z,100589.13
2022-08-20T08:34:17.428Z,100618.00
2022-08-20T08:36:45.550Z,100589.09
2022-08-20T08:39:13.321Z,100584.84
2022-08-20T08:41:48.092Z,100601.31
2022-08-20T08:44:40.245Z,100557.28
2022-08-20T08:47:21.817Z,100602.72
2022-08-20T08:49:50.479Z,100605.88
2022-08-20T08:52:26.649Z,100573.50
2022-08-20T08:55:00.895Z,100578.00
2022-08-20T08:57:29.472Z,100535.91
2022-08-20T09:00:11.139Z,100544.28
2022-08-20T09:02:39.653Z,100526.59
2022-08-20T09:05:19.359Z,100558.84
2022-08-20T09:07:53.161Z,100535.91
2022-08-20T09:10:23.279Z,100551.09
2022-08-20T09:12:52.498Z,100537.63
2022-08-20T09:15:21.384Z,100553.88
2022-08-20T09:17:49.660Z,100510.63
2022-08-20T09:20:19.466Z,100499.97
2022-08-20T09:22:51.998Z,100504.84
2022-08-20T09:25:20.462Z,100552.22
2022-08-20T09:27:48.714Z,100524.91
2022-08-20T09:30:19.486Z,100463.47
2022-08-20T09:32:48.725Z,100424.84
2022-08-20T09:35:16.877Z,100424.16
2022-08-20T09:37:46.945Z,100375.44
2022-08-20T09:40:21.386Z,100328.94
2022-08-20T09:42:50.609Z,100316.00
2022-08-20T09:45:19.565Z,100328.28
2022-08-20T09:48:01.938Z,100250.06
2022-08-20T09:50:34.409Z,100262.63
2022-08-20T09:53:05.670Z,100270.41
2022-08-20T09:55:43.756Z,100256.19
2022-08-20T09:58:36.421Z,100243.88
2022-08-20T10:01:14.105Z,100239.66
2022-08-20T10:03:44.352Z,100253.94
2022-08-20T10:06:14.783Z,100224.91
2022-08-20T10:08:43.976Z,100210.66
2022-08-20T10:11:12.441Z,100263.13
2022-08-20T10:13:40.419Z,100244.34
2022-08-20T10:16:08.383Z,100235.78
2022-08-20T10:18:37.170Z,100245.75
2022-08-20T10:21:12.891Z,100240.84
2022-08-20T10:23:41.434Z,100231.84
2022-08-20T10:26:11.596Z,100151.38
2022-08-20T10:28:40.041Z,100163.44
2022-08-20T10:31:10.627Z,100179.66
2022-08-20T10:33:40.796Z,100212.00
2022-08-20T10:36:10.284Z,100209.75
2022-08-20T10:38:38.507Z,100232.44
2022-08-20T10:41:06.818Z,100147.19
2022-08-20T10:43:35.230Z,100127.50
2022-08-20T10:46:03.749Z,100109.03
2022-08-20T10:48:31.648Z,100097.75
2022-08-20T10:50:59.692Z,100104.06
2022-08-20T10:53:27.540Z,100081.97
2022-08-20T10:55:56.540Z,100098.84
2022-08-20T10:58:25.870Z,100086.84
2022-08-20T11:01:03.943Z,100086.84
2022-08-20T11:03:31.826Z,100100.50
2022-08-20T11:06:00.074Z,100104.63
2022-08-20T11:08:34.292Z,100080.09
2022-08-20T11:11:05.824Z,100087.47
2022-08-20T11:13:35.589Z,100087.41
2022-08-20T11:16:04.992Z,100075.38
2022-08-20T11:18:33.323Z,100014.22
2022-08-20T11:21:02.226Z,99965.47
2022-08-20T11:23:30.483Z,100002.38
2022-08-20T11:25:59.050Z,99974.63
2022-08-20T11:28:31.567Z,99905.59
2022-08-20T11:31:01.633Z,99859.06
2022-08-20T11:33:29.979Z,99889.59
2022-08-20T11:35:58.134Z,99890.47
2022-08-20T11:38:26.709Z,99886.41
2022-08-20T11:40:54.845Z,99837.28
2022-08-20T11:43:23.024Z,99865.50
2022-08-20T11:45:55.071Z,99880.91
2022-08-20T11:48:23.401Z,99827.13
2022-08-20T11:50:52.239Z,99809.94
2022-08-20T11:53:20.045Z,99812.72
2022-08-20T11:55:49.817Z,99767.13
2022-08-20T11:58:17.933Z,99840.50
2022-08-20T12:00:46.144Z,99786.81
2022-08-20T12:03:14.331Z,99734.50
2022-08-20T12:05:45.502Z,99727.00
2022-08-20T12:08:25.315Z,99652.19
2022-08-20T12:11:02.244Z,99708.28
2022-08-20T12:13:47.488Z,99718.03
2022-08-20T12:16:18.626Z,99618.34
2022-08-20T12:18:48.355Z,99623.13
2022-08-20T12:21:16.328Z,99510.63
2022-08-20T12:23:44.906Z,99544.41
2022-08-20T12:26:13.412Z,99557.91
2022-08-20T12:28:41.233Z,99442.88
2022-08-20T12:31:09.278Z,99458.38
2022-08-20T12:33:37.078Z,99538.78
2022-08-20T12:36:05.312Z,99439.50
2022-08-20T12:38:33.290Z,99426.34
2022-08-20T12:41:01.307Z,99387.38
2022-08-20T12:43:29.131Z,99336.78
2022-08-20T12:45:57.367Z,99331.53
2022-08-20T12:48:25.735Z,99310.69
2022-08-20T12:50:53.571Z,99315.31
2022-08-20T12:53:21.822Z,99329.75
2022-08-20T12:55:50.040Z,99278.59
2022-08-20T12:58:19.405Z,99336.69
2022-08-20T13:00:50.410Z,99217.53
2022-08-20T13:03:20.654Z,99232.38
2022-08-20T13:05:49.649Z,99273.31
2022-08-20T13:08:19.693Z,99333.44
2022-08-20T13:10:48.442Z,99274.50
2022-08-20T13:13:20.446Z,99231.06
2022-08-20T13:15:50.785Z,99227.63
2022-08-20T13:18:19.453Z,99172.28
2022-08-20T13:20:48.146Z,99186.94
2022-08-20T13:23:16.348Z,99193.91
2022-08-20T13:25:44.296Z,99091.50
2022-08-20T13:28:12.624Z,99080.88
2022-08-20T13:30:41.455Z,99152.81
2022-08-20T13:33:09.878Z,99039.69
2022-08-20T13:35:38.205Z,99024.69
2022-08-20T13:38:06.510Z,99006.19
2022-08-20T13:40:34.787Z,99017.13
2022-08-20T13:43:06.841Z,98999.53
2022-08-20T13:45:37.605Z,99067.28
2022-08-20T13:48:16.725Z,99019.13
2022-08-20T13:50:47.149Z,99054.00
2022-08-20T13:53:16.419Z,98988.75
2022-08-20T13:55:45.182Z,99096.63
2022-08-20T13:58:14.468Z,98933.47
2022-08-20T14:00:42.453Z,99010.09
2022-08-20T14:03:11.078Z,98943.41
2022-08-20T14:05:39.380Z,99046.41
2022-08-20T14:08:21.335Z,99011.53
2022-08-20T14:10:51.597Z,98979.66
2022-08-20T14:13:25.406Z,98869.06
2022-08-20T14:15:54.724Z,98898.25
2022-08-20T14:18:23.036Z,98942.00
2022-08-20T14:20:51.329Z,98903.19
2022-08-20T14:23:19.659Z,98926.72
2022-08-20T14:25:49.456Z,98830.00
2022-08-20T14:28:22.092Z,98880.59
2022-08-20T14:30:52.842Z,98918.25
2022-08-20T14:33:23.705Z,98803.16
2022-08-20T14:35:52.473Z,98957.91
2022-08-20T14:38:20.640Z,98841.19
2022-08-20T14:40:50.689Z,98807.28
2022-08-20T14:43:19.660Z,98775.81
2022-08-20T14:45:47.934Z,98775.84
2022-08-20T14:48:16.450Z,98807.63
2022-08-20T14:50:44.644Z,98796.03
2022-08-20T14:53:23.981Z,98772.63
2022-08-20T14:55:53.306Z,98765.66
2022-08-20T14:58:21.819Z,98819.31
2022-08-20T15:00:49.943Z,98885.28
2022-08-20T15:03:17.837Z,98840.88
2022-08-20T15:05:46.187Z,98849.94
2022-08-20T15:08:18.325Z,98870.34
2022-08-20T15:10:47.173Z,98843.03
2022-08-20T15:13:15.312Z,98889.75
2022-08-20T15:15:43.652Z,98889.09
2022-08-20T15:18:11.446Z,98721.94
2022-08-20T15:20:41.020Z,98842.84
2022-08-20T15:23:09.326Z,98831.44
2022-08-20T15:25:37.954Z,98806.50
2022-08-20T15:28:09.645Z,98811.03
2022-08-20T15:30:40.893Z,98761.81
2022-08-20T15:33:10.441Z,98739.75
2022-08-20T15:35:38.634Z,98872.06
2022-08-20T15:38:06.677Z,98797.44
2022-08-20T15:40:34.902Z,98786.19
2022-08-20T15:43:05.493Z,98783.69
2022-08-20T15:45:35.492Z,98752.47
2022-08-20T15:48:18.070Z,98822.19
2022-08-20T15:51:09.296Z,98819.00
2022-08-20T15:53:52.655Z,98851.44
2022-08-20T15:56:50.488Z,98847.84
2022-08-20T16:00:19.692Z,98752.63
2022-08-20T16:03:07.501Z,98873.28
2022-08-20T16:06:24.788Z,98749.06
2022-08-20T16:09:13.909Z,98787.94
2022-08-20T16:11:58.491Z,98747.97
2022-08-20T16:14:38.594Z,98813.19
2022-08-20T16:17:08.149Z,98820.75
2022-08-20T16:20:07.427Z,98855.00
2022-08-20T16:22:43.074Z,98924.84
2022-08-20T16:25:13.353Z,98857.97
2022-08-20T16:28:03.178Z,98935.41
2022-08-20T16:30:47.101Z,98875.22
2022-08-20T16:33:26.824Z,98944.25
2022-08-20T16:36:26.154Z,98969.25
2022-08-20T16:39:01.274Z,98958.91
2022-08-20T16:41:41.136Z,98977.94
2022-08-20T16:44:27.428Z,98995.72
2022-08-20T16:47:17.433Z,98958.91
2022-08-20T16:50:16.264Z,99026.63
2022-08-20T16:52:46.880Z,98984.97
2022-08-20T16:55:15.924Z,99015.75
2022-08-20T16:58:04.417Z,99035.00
2022-08-20T17:01:15.258Z,99036.63
2022-08-20T17:04:04.903Z,99022.41
2022-08-20T17:06:53.610Z,99054.06
2022-08-20T17:09:43.511Z,99055.34
2022-08-20T17:12:22.362Z,99050.53
2022-08-20T17:14:54.926Z,99047.53
2022-08-20T17:17:23.072Z,99078.28
2022-08-20T17:19:58.660Z,99045.69
2022-08-20T17:22:31.249Z,99068.38
2022-08-20T17:24:59.546Z,99091.19
2022-08-20T17:27:37.912Z,99067.81
2022-08-20T17:30:11.173Z,99043.63
2022-08-20T17:33:02.570Z,99051.38
2022-08-20T17:35:34.964Z,99033.84
2022-08-20T17:38:04.808Z,99038.50
2022-08-20T17:40:46.125Z,99031.88
2022-08-20T17:43:32.093Z,99060.69
2022-08-20T17:46:07.157Z,99072.13
2022-08-20T17:48:48.513Z,99079.94
2022-08-20T17:51:26.662Z,99081.94
2022-08-20T17:54:02.930Z,99110.34
2022-08-20T17:56:35.184Z,99110.59
2022-08-20T17:59:05.925Z,99107.50
2022-08-20T18:01:34.986Z,99089.47
2022-08-20T18:04:03.616Z,99107.91
2022-08-20T18:06:37.614Z,99119.56
2022-08-20T18:09:19.292Z,99115.06
2022-08-20T18:12:35.756Z,99157.13
2022-08-20T18:15:20.210Z,99196.53
2022-08-20T18:18:30.616Z,99208.41
2022-08-20T18:21:50.391Z,99182.88
2022-08-20T18:24:52.732Z,99176.22
2022-08-20T18:27:48.135Z,99208.59
2022-08-20T18:30:53.047Z,99320.09
2022-08-20T18:33:42.196Z,99299.38
2022-08-20T18:36:30.528Z,99308.16
2022-08-20T18:39:10.362Z,99305.69
2022-08-20T18:42:04.534Z,99319.31
2022-08-20T18:44:44.606Z,99334.91
2022-08-20T18:47:33.158Z,99391.13
2022-08-20T18:50:16.665Z,99456.97
2022-08-20T18:53:11.504Z,99487.38
2022-08-20T18:56:13.983Z,99401.44
2022-08-20T18:59:17.991Z,99409.88
2022-08-20T19:01:49.294Z,99421.69
2022-08-20T19:04:34.359Z,99454.56
2022-08-20T19:07:06.013Z,99479.34
2022-08-20T19:10:00.570Z,99475.44
2022-08-20T19:12:57.531Z,99505.75
2022-08-20T19:15:27.056Z,99531.28
2022-08-20T19:18:25.839Z,99547.19
2022-08-20T19:20:59.914Z,99578.31
2022-08-20T19:23:39.203Z,99600.09
2022-08-20T19:26:25.730Z,99613.56
2022-08-20T19:29:00.902Z,99639.22
2022-08-20T19:31:32.982Z,99651.66
2022-08-20T19:34:18.041Z,99676.66
2022-08-20T19:36:59.094Z,99722.50
2022-08-20T19:39:31.411Z,99713.25
2022-08-20T19:42:14.369Z,99733.47
2022-08-20T19:45:23.060Z,99748.53
2022-08-20T19:48:13.162Z,99771.69
2022-08-20T19:50:57.226Z,99791.53
2022-08-20T19:53:31.115Z,99810.16
2022-08-20T19:56:19.941Z,99816.09
2022-08-20T19:59:10.031Z,99836.47
2022-08-20T20:01:38.314Z,99860.75
2022-08-20T20:04:16.911Z,99881.94
2022-08-20T20:06:48.163Z,99889.72
2022-08-20T20:09:29.045Z,99914.16
2022-08-20T20:12:03.922Z,99918.34
2022-08-20T20:14:35.193Z,99940.56
2022-08-20T20:17:14.550Z,99948.00
2022-08-20T20:19:50.665Z,99955.03
2022-08-20T20:22:47.066Z,99959.16
2022-08-20T20:25:31.072Z,99975.47
2022-08-20T20:28:21.220Z,99983.13
2022-08-20T20:31:05.322Z,99983.13
2022-08-20T20:33:43.970Z,100001.91
2022-08-20T20:36:18.528Z,100008.53
2022-08-20T20:39:00.501Z,100039.59
2022-08-20T20:41:29.498Z,100061.06
2022-08-20T20:44:17.557Z,100069.50
2022-08-20T20:46:49.570Z,100096.13
2022-08-20T20:49:28.480Z,100078.25
2022-08-20T20:51:59.275Z,100083.41
2022-08-20T20:54:43.730Z,100089.50
2022-08-20T20:57:25.564Z,100094.25
2022-08-20T21:00:14.692Z,100097.88
2022-08-20T21:02:42.838Z,100101.00
2022-08-20T21:05:13.499Z,100103.22
2022-08-20T21:08:00.783Z,100109.72
2022-08-20T21:10:34.838Z,100112.34
2022-08-20T21:13:03.800Z,100125.81
2022-08-20T21:15:33.655Z,100137.66
2022-08-20T21:18:06.340Z,100135.97
2022-08-20T21:20:34.905Z,100142.28
2022-08-20T21:23:03.201Z,100137.97
2022-08-20T21:25:33.209Z,100143.59
2022-08-20T21:28:01.390Z,100144.66
2022-08-20T21:30:30.865Z,100144.09
2022-08-20T21:32:58.947Z,100162.81
2022-08-20T21:35:27.717Z,100150.03
2022-08-20T21:37:55.566Z,100161.91
2022-08-20T21:40:23.477Z,100172.03
2022-08-20T21:42:57.443Z,100165.16
2022-08-20T21:45:28.469Z,100188.31
2022-08-20T21:47:57.365Z,100190.31
2022-08-20T21:50:25.961Z,100194.97
2022-08-20T21:52:59.515Z,100194.16
2022-08-20T21:55:33.081Z,100188.13
2022-08-20T21:58:04.934Z,100202.41
2022-08-20T22:00:58.782Z,100208.06
2022-08-20T22:03:34.261Z,100206.31
2022-08-20T22:06:08.128Z,100212.78
2022-08-20T22:08:36.542Z,100210.56
2022-08-20T22:11:05.834Z,100210.63
2022-08-20T22:13:34.668Z,100217.31
2022-08-20T22:16:07.751Z,100224.66
2022-08-20T22:18:36.921Z,100229.53
2022-08-20T22:21:10.623Z,100239.50
2022-08-20T22:23:40.152Z,100236.00
2022-08-20T22:26:08.946Z,100249.53
2022-08-20T22:28:37.977Z,100248.09
2022-08-20T22:31:06.841Z,100267.78
2022-08-20T22:33:35.673Z,100270.50
2022-08-20T22:36:06.379Z,100290.53
2022-08-20T22:38:34.717Z,100298.16
2022-08-20T22:41:06.370Z,100310.06
2022-08-20T22:43:43.439Z,100311.69
2022-08-20T22:46:27.076Z,100316.34
2022-08-20T22:48:56.240Z,100322.19
2022-08-20T22:51:30.908Z,100312.22
2022-08-20T22:54:00.194Z,100304.25
2022-08-20T22:56:30.073Z,100305.19
2022-08-20T22:58:59.366Z,100308.16
2022-08-20T23:01:28.184Z,100309.28
2022-08-20T23:04:12.496Z,100311.81
2022-08-20T23:06:41.864Z,100317.16
2022-08-20T23:09:12.865Z,100310.22
2022-08-20T23:11:41.425Z,100301.38
2022-08-20T23:14:09.569Z,100311.47
2022-08-20T23:16:43.206Z,100322.28
2022-08-20T23:19:24.274Z,100328.22
2022-08-20T23:21:52.932Z,100345.19
2022-08-20T23:24:21.631Z,100337.19
2022-08-20T23:26:53.045Z,100353.47
2022-08-20T23:29:25.614Z,100352.63
2022-08-20T23:31:58.343Z,100355.34
2022-08-20T23:34:26.905Z,100342.78
2022-08-20T23:36:57.474Z,100349.13
2022-08-20T23:39:27.153Z,100348.91
2022-08-20T23:41:55.921Z,100362.66
2022-08-20T23:44:25.867Z,100363.38
2022-08-20T23:47:02.201Z,100376.69
2022-08-20T23:49:32.484Z,100365.47
2022-08-20T23:52:01.078Z,100373.81
2022-08-20T23:54:31.198Z,100382.84
2022-08-20T23:56:59.660Z,100364.56
2022-08-20T23:59:27.992Z,100386.84
